< < Back
Terminal Aerodrome Forecast


Current Version              Previous Versions:   1  2  3  4  5  6  7  8  9  

Terminal Aerodrome Forecast

810
FTAK31 PAJN 141328 AAA
TAFAHN
TAF AMD
PAHN 141328Z 1413/1512 06011G19KT P6SM -SHRA SCT017 BKN022 OVC027
     FM142100 30006KT P6SM BKN025 OVC060
     FM150600 12004KT P6SM OVC025
     FM150900 12006KT 3SM -SHRA BR OVC025
      AMD LTD TO CLD VIS AND WIND=

Latest METAR

396
SAUS70 KWBC 142100 RRA
MTRAHN
METAR KAHN 142051Z 12007KT 10SM FEW075 07/M09 A3029 RMK AO2 SLP262
T00721094 56019


USA.gov is the U.S. government's official web portal to all federal, state and local government web resources and services.